Time;durP1;ratioP1;P1;durP2;ratioP2;P2;SDS_P1;SDS_P2;PMS_P1;PMS_P2;Temp;Humidity;BMP_temperature;BMP_pressure;BME280_temperature;BME280_humidity;BME280_pressure;Samples;Min_cycle;Max_cycle;Signal;HPM_P1;HPM_P2
2022/03/15 00:01:28;;;;;;;13.55;10.00;;;;;;;8.43;100.00;100459.78;5072325;28;20581;-75
2022/03/15 00:03:56;;;;;;;18.42;11.45;;;;;;;8.56;100.00;100442.28;5072338;28;20190;-76
2022/03/15 00:06:23;;;;;;;13.27;8.75;;;;;;;8.57;100.00;100432.47;5071653;28;20191;-75
2022/03/15 00:08:49;;;;;;;13.65;10.13;;;;;;;8.46;100.00;100448.94;5072178;28;20294;-75
2022/03/15 00:11:16;;;;;;;14.10;10.43;;;;;;;8.42;100.00;100455.34;5071898;28;20616;-75
2022/03/15 00:13:43;;;;;;;14.10;9.68;;;;;;;8.51;100.00;100451.47;5071804;28;20317;-76
2022/03/15 00:16:10;;;;;;;11.90;9.90;;;;;;;8.60;100.00;100443.06;5071853;28;20651;-76
2022/03/15 00:18:37;;;;;;;12.80;9.20;;;;;;;8.64;100.00;100441.13;5072075;28;20193;-76
2022/03/15 00:21:07;;;;;;;12.07;9.20;;;;;;;8.28;100.00;100433.47;5071375;28;20203;-75
2022/03/15 00:23:34;;;;;;;12.15;9.27;;;;;;;8.34;100.00;100444.88;5071896;28;20655;-76
2022/03/15 00:26:01;;;;;;;14.88;8.85;;;;;;;8.76;100.00;100444.25;5071721;28;20544;-76
2022/03/15 00:28:30;;;;;;;14.40;8.98;;;;;;;8.62;100.00;100451.06;5071589;28;20189;-76
2022/03/15 00:30:57;;;;;;;12.68;8.75;;;;;;;8.75;99.69;100453.25;5071169;28;20191;-76
2022/03/15 00:33:25;;;;;;;14.00;10.40;;;;;;;8.59;100.00;100453.84;5071231;28;20217;-76
2022/03/15 00:35:53;;;;;;;11.48;9.73;;;;;;;8.50;100.00;100453.28;5071491;28;20203;-76
2022/03/15 00:38:22;;;;;;;13.05;9.25;;;;;;;8.32;100.00;100441.34;5071400;28;20196;-76
2022/03/15 00:40:49;;;;;;;14.18;9.52;;;;;;;8.24;100.00;100442.56;5071369;28;20189;-76
2022/03/15 00:43:16;;;;;;;12.05;9.85;;;;;;;8.06;100.00;100431.53;5071438;28;20189;-76
2022/03/15 00:45:43;;;;;;;13.32;8.93;;;;;;;7.86;100.00;100440.25;5071495;28;20635;-76
2022/03/15 00:48:09;;;;;;;11.93;8.38;;;;;;;7.96;100.00;100437.25;5071410;28;20189;-76
2022/03/15 00:50:41;;;;;;;11.43;8.80;;;;;;;7.75;100.00;100446.91;5071537;28;20690;-76
2022/03/15 00:53:09;;;;;;;10.13;8.65;;;;;;;7.61;100.00;100440.19;5071260;28;20201;-76
2022/03/15 00:55:38;;;;;;;12.52;9.52;;;;;;;7.55;100.00;100443.03;5071094;28;20184;-76
2022/03/15 00:58:05;;;;;;;11.23;7.80;;;;;;;7.66;100.00;100440.03;5071105;28;20250;-76
2022/03/15 01:00:32;;;;;;;11.60;8.65;;;;;;;7.89;100.00;100449.97;5071339;28;20190;-76
2022/03/15 01:02:59;;;;;;;13.70;8.52;;;;;;;8.05;100.00;100450.34;5071388;28;20576;-75
2022/03/15 01:05:26;;;;;;;12.70;8.82;;;;;;;8.14;100.00;100437.50;5071168;28;20725;-76
2022/03/15 01:07:52;;;;;;;9.13;7.68;;;;;;;8.07;100.00;100427.03;5071250;28;20208;-76
2022/03/15 01:10:19;;;;;;;12.48;8.35;;;;;;;7.86;100.00;100417.91;5071464;28;20195;-76
2022/03/15 01:12:47;;;;;;;10.07;7.63;;;;;;;7.88;100.00;100418.75;5070599;28;20220;-76
2022/03/15 01:15:13;;;;;;;8.10;7.05;;;;;;;8.05;100.00;100419.06;5071085;28;20200;-76
2022/03/15 01:17:40;;;;;;;9.93;7.47;;;;;;;8.08;100.00;100418.94;5071316;28;20531;-76
2022/03/15 01:20:08;;;;;;;9.93;7.63;;;;;;;8.13;100.00;100413.41;5070919;28;20203;-76
2022/03/15 01:22:36;;;;;;;10.35;7.80;;;;;;;8.06;100.00;100410.06;5071082;28;20243;-76
2022/03/15 01:25:02;;;;;;;12.95;7.95;;;;;;;7.85;100.00;100402.78;5070638;28;20185;-75
2022/03/15 01:27:29;;;;;;;11.13;6.75;;;;;;;8.11;100.00;100413.44;5071282;28;20190;-76
2022/03/15 01:29:57;;;;;;;9.48;7.55;;;;;;;8.25;100.00;100412.09;5070908;28;20208;-76
2022/03/15 01:32:24;;;;;;;10.70;7.13;;;;;;;8.27;100.00;100418.28;5071096;28;20244;-75
2022/03/15 01:34:51;;;;;;;10.50;7.20;;;;;;;8.25;100.00;100410.28;5070551;28;20205;-76
2022/03/15 01:37:17;;;;;;;9.30;6.60;;;;;;;8.15;100.00;100409.75;5071195;28;20197;-76
2022/03/15 01:39:44;;;;;;;9.70;6.53;;;;;;;8.16;100.00;100410.59;5070758;28;20185;-75
2022/03/15 01:42:10;;;;;;;11.52;6.68;;;;;;;8.01;100.00;100412.03;5070919;28;20185;-76
2022/03/15 01:44:37;;;;;;;8.52;7.30;;;;;;;7.94;100.00;100399.78;5070852;28;20186;-76
2022/03/15 01:47:06;;;;;;;10.35;7.15;;;;;;;7.71;100.00;100396.06;5071082;28;20654;-76
2022/03/15 01:49:33;;;;;;;7.72;6.60;;;;;;;7.97;100.00;100399.66;5070489;28;20217;-76
2022/03/15 01:51:59;;;;;;;8.60;7.00;;;;;;;7.92;100.00;100399.81;5070627;28;20186;-75
2022/03/15 01:54:26;;;;;;;11.55;6.70;;;;;;;7.89;100.00;100404.41;5070671;28;20204;-75
2022/03/15 01:56:53;;;;;;;8.55;7.28;;;;;;;7.94;100.00;100400.66;5071052;28;20300;-75
2022/03/15 01:59:19;;;;;;;7.90;7.13;;;;;;;8.01;100.00;100401.31;5074429;28;20185;-76
2022/03/15 02:01:47;;;;;;;8.77;6.82;;;;;;;7.98;100.00;100405.88;5074542;28;20641;-76
2022/03/15 02:04:16;;;;;;;12.45;6.97;;;;;;;8.18;100.00;100410.56;5073953;28;20189;-76
2022/03/15 02:06:44;;;;;;;8.30;6.80;;;;;;;8.15;100.00;100399.00;5065394;28;20208;-76
2022/03/15 02:09:12;;;;;;;11.48;7.10;;;;;;;8.02;100.00;100403.03;5074466;28;20219;-75
2022/03/15 02:11:39;;;;;;;6.97;6.28;;;;;;;8.31;100.00;100406.50;5073959;28;20197;-76
2022/03/15 02:14:06;;;;;;;10.05;6.88;;;;;;;8.44;100.00;100399.81;5074449;28;20216;-75
2022/03/15 02:16:33;;;;;;;8.68;6.90;;;;;;;8.11;100.00;100407.22;5074370;28;20255;-76
2022/03/15 02:19:01;;;;;;;8.55;6.15;;;;;;;8.14;100.00;100402.63;5074587;28;20266;-76
2022/03/15 02:21:30;;;;;;;9.80;6.90;;;;;;;8.23;100.00;100397.84;5073777;28;20197;-76
2022/03/15 02:23:57;;;;;;;10.25;7.22;;;;;;;8.09;100.00;100388.47;5074336;28;20547;-76
2022/03/15 02:26:24;;;;;;;9.30;6.43;;;;;;;8.31;100.00;100395.78;5074509;28;20189;-76
2022/03/15 02:28:50;;;;;;;7.65;6.55;;;;;;;8.36;100.00;100400.03;5074344;28;20705;-76
2022/03/15 02:31:19;;;;;;;8.48;6.50;;;;;;;8.42;100.00;100392.75;5073867;28;20194;-76
2022/03/15 02:33:46;;;;;;;7.60;5.80;;;;;;;8.26;100.00;100392.41;5066415;28;20654;-76
2022/03/15 02:36:13;;;;;;;8.88;5.88;;;;;;;8.25;100.00;100396.00;5073885;28;20204;-75
2022/03/15 02:38:41;;;;;;;11.27;6.05;;;;;;;8.48;100.00;100390.72;5073349;28;20286;-76
2022/03/15 02:41:07;;;;;;;7.57;6.05;;;;;;;8.42;99.64;100390.94;5073896;28;20186;-76
2022/03/15 02:43:34;;;;;;;6.25;5.65;;;;;;;8.43;100.00;100394.50;5073727;28;20644;-76
2022/03/15 02:46:01;;;;;;;7.90;6.13;;;;;;;8.47;100.00;100380.91;5073483;28;20189;-76
2022/03/15 02:48:27;;;;;;;8.55;6.35;;;;;;;8.31;100.00;100379.69;5073483;28;20190;-76
2022/03/15 02:50:56;;;;;;;7.13;5.43;;;;;;;8.03;100.00;100372.63;5073285;28;20220;-75
2022/03/15 02:53:22;;;;;;;7.30;5.70;;;;;;;7.94;100.00;100375.63;5072904;28;20207;-76
2022/03/15 02:55:51;;;;;;;7.50;6.28;;;;;;;7.85;100.00;100379.50;5073192;28;20186;-75
2022/03/15 02:58:18;;;;;;;7.38;5.43;;;;;;;7.96;100.00;100378.25;5072922;28;20194;-76
2022/03/15 03:00:45;;;;;;;9.88;5.60;;;;;;;7.95;100.00;100377.38;5073413;28;20222;-76
2022/03/15 03:03:12;;;;;;;7.50;5.93;;;;;;;8.19;100.00;100366.72;5073251;28;20604;-75
2022/03/15 03:05:39;;;;;;;10.23;5.55;;;;;;;8.24;100.00;100378.16;5073351;28;20186;-75
2022/03/15 03:08:06;;;;;;;10.27;5.85;;;;;;;8.21;100.00;100373.78;5073158;28;20218;-76
2022/03/15 03:10:33;;;;;;;8.48;5.30;;;;;;;8.17;100.00;100376.63;5072686;28;20191;-76
2022/03/15 03:13:01;;;;;;;6.32;4.95;;;;;;;8.13;100.00;100379.41;5069239;28;20206;-76
2022/03/15 03:15:27;;;;;;;5.63;4.85;;;;;;;8.07;100.00;100376.97;5072762;28;20206;-76
2022/03/15 03:17:54;;;;;;;6.30;5.22;;;;;;;8.14;100.00;100381.19;5072714;28;20204;-76
2022/03/15 03:20:22;;;;;;;5.85;5.25;;;;;;;8.25;99.63;100378.09;5073027;28;20592;-76
2022/03/15 03:22:51;;;;;;;8.20;6.30;;;;;;;7.99;100.00;100373.66;5073093;28;20296;-75
2022/03/15 03:25:18;;;;;;;7.63;5.88;;;;;;;8.10;100.00;100357.19;5072458;28;20194;-76
2022/03/15 03:27:46;;;;;;;8.88;6.00;;;;;;;8.06;100.00;100364.47;5072653;28;20201;-76
2022/03/15 03:30:15;;;;;;;7.72;5.70;;;;;;;8.15;100.00;100358.78;5072617;28;20202;-76
2022/03/15 03:32:42;;;;;;;8.85;5.53;;;;;;;7.98;100.00;100346.88;5072485;28;20219;-76
2022/03/15 03:35:09;;;;;;;7.88;6.63;;;;;;;7.99;100.00;100344.16;5072467;28;20259;-76
2022/03/15 03:37:35;;;;;;;8.25;6.50;;;;;;;8.09;100.00;100345.56;5072376;28;20193;-76
2022/03/15 03:40:07;;;;;;;7.85;5.32;;;;;;;8.23;100.00;100342.41;5072471;28;20621;-76
2022/03/15 03:42:34;;;;;;;7.70;5.78;;;;;;;8.39;99.51;100333.78;5072257;28;20595;-76
2022/03/15 03:45:00;;;;;;;9.35;6.30;;;;;;;8.40;99.96;100346.28;5072126;28;20656;-76
2022/03/15 03:47:28;;;;;;;9.80;5.85;;;;;;;8.58;97.62;100355.47;5072072;28;20185;-76
2022/03/15 03:49:55;;;;;;;8.88;6.15;;;;;;;8.89;94.57;100358.72;5071824;28;20239;-76
2022/03/15 03:52:22;;;;;;;8.93;6.50;;;;;;;8.91;93.56;100350.59;5072012;28;20199;-76
2022/03/15 03:54:49;;;;;;;7.22;5.70;;;;;;;8.65;95.00;100347.13;5072382;28;20202;-76
2022/03/15 03:57:15;;;;;;;7.07;5.28;;;;;;;8.56;96.23;100364.44;5071963;28;20218;-76
2022/03/15 03:59:42;;;;;;;7.28;5.85;;;;;;;8.73;95.33;100353.09;5072347;28;20194;-75
2022/03/15 04:02:09;;;;;;;5.82;4.55;;;;;;;8.62;95.39;100354.44;5071981;28;20188;-75
2022/03/15 04:04:37;;;;;;;7.53;5.90;;;;;;;8.66;95.11;100351.56;5071755;28;20203;-75
2022/03/15 04:07:10;;;;;;;7.50;5.93;;;;;;;8.62;95.30;100360.66;5072054;28;20277;-76
2022/03/15 04:09:36;;;;;;;7.65;5.65;;;;;;;8.69;95.03;100355.94;5072367;28;20195;-76
2022/03/15 04:12:06;;;;;;;10.18;6.28;;;;;;;8.51;95.99;100354.84;5072119;28;20200;-75
2022/03/15 04:14:34;;;;;;;9.55;6.10;;;;;;;8.53;96.99;100353.84;5072073;28;20290;-76
2022/03/15 04:17:01;;;;;;;9.13;6.25;;;;;;;8.60;96.06;100348.25;5071933;28;20538;-75
2022/03/15 04:19:27;;;;;;;7.30;5.85;;;;;;;8.42;98.36;100349.81;5071611;28;20183;-75
2022/03/15 04:21:55;;;;;;;7.88;6.55;;;;;;;8.27;100.00;100343.16;5071560;28;20601;-75
2022/03/15 04:24:22;;;;;;;11.10;7.03;;;;;;;8.43;99.42;100332.75;5071859;28;20189;-75
2022/03/15 04:26:49;;;;;;;10.85;6.78;;;;;;;8.56;98.59;100332.22;5071351;28;20254;-75
2022/03/15 04:29:15;;;;;;;12.02;6.15;;;;;;;8.60;98.21;100329.47;5071659;28;20250;-75
2022/03/15 04:31:42;;;;;;;10.35;6.35;;;;;;;8.37;99.95;100315.06;5071728;28;20211;-75
2022/03/15 04:34:08;;;;;;;12.45;6.82;;;;;;;8.30;100.00;100321.59;5070758;28;20202;-75
2022/03/15 04:36:36;;;;;;;10.85;6.93;;;;;;;8.32;100.00;100314.34;5070470;28;20200;-75
2022/03/15 04:39:04;;;;;;;10.95;7.03;;;;;;;8.21;100.00;100321.91;5071348;28;20247;-75
2022/03/15 04:41:31;;;;;;;8.20;6.40;;;;;;;8.10;100.00;100317.81;5071674;28;20200;-75
2022/03/15 04:43:57;;;;;;;8.05;6.78;;;;;;;8.26;100.00;100330.69;5071386;28;20182;-76
2022/03/15 04:46:24;;;;;;;9.75;6.38;;;;;;;8.21;100.00;100321.91;5071329;28;20190;-75
2022/03/15 04:48:51;;;;;;;11.85;6.15;;;;;;;7.90;100.00;100312.31;5071172;28;20260;-75
2022/03/15 04:51:17;;;;;;;7.40;6.10;;;;;;;7.72;100.00;100309.34;5071257;28;20224;-75
2022/03/15 04:53:44;;;;;;;8.77;6.95;;;;;;;7.89;100.00;100321.28;5071463;28;20597;-75
2022/03/15 04:56:12;;;;;;;16.58;7.20;;;;;;;8.02;100.00;100317.22;5071160;28;20198;-75
2022/03/15 04:58:39;;;;;;;8.57;6.47;;;;;;;8.08;100.00;100313.47;5071261;28;20221;-75
2022/03/15 05:01:06;;;;;;;10.50;6.57;;;;;;;7.90;100.00;100318.53;5071560;28;20198;-75
2022/03/15 05:03:35;;;;;;;13.55;7.00;;;;;;;7.66;100.00;100312.22;5071448;28;20235;-76
2022/03/15 05:06:02;;;;;;;11.18;7.20;;;;;;;7.57;100.00;100306.31;5071582;28;20194;-75
2022/03/15 05:08:28;;;;;;;8.02;7.20;;;;;;;7.75;100.00;100308.34;5071479;28;20196;-75
2022/03/15 05:11:06;;;;;;;10.90;8.13;;;;;;;7.99;100.00;100311.13;5071114;28;20625;-75
2022/03/15 05:13:35;;;;;;;10.30;7.25;;;;;;;7.95;100.00;100304.97;5071187;28;20547;-75
2022/03/15 05:16:01;;;;;;;8.73;7.78;;;;;;;7.81;100.00;100307.28;5063826;28;20212;-76
2022/03/15 05:18:28;;;;;;;10.50;8.05;;;;;;;7.90;100.00;100313.19;5071379;28;20682;-76
2022/03/15 05:20:55;;;;;;;10.02;6.80;;;;;;;7.59;100.00;100291.06;5071227;28;20192;-76
2022/03/15 05:23:21;;;;;;;7.70;6.90;;;;;;;7.68;100.00;100280.03;5070797;28;20635;-76
2022/03/15 05:25:48;;;;;;;13.93;8.98;;;;;;;7.63;100.00;100279.31;5070547;28;20190;-76
2022/03/15 05:28:14;;;;;;;14.73;8.05;;;;;;;7.92;100.00;100291.69;5071414;28;20304;-76
2022/03/15 05:30:42;;;;;;;12.75;7.53;;;;;;;8.05;100.00;100278.69;5071125;28;20267;-76
2022/03/15 05:33:09;;;;;;;9.45;7.80;;;;;;;8.06;100.00;100283.13;5073541;28;20200;-76
2022/03/15 05:35:36;;;;;;;12.63;7.53;;;;;;;7.77;100.00;100284.19;5074068;28;20205;-76
2022/03/15 05:38:02;;;;;;;8.90;7.22;;;;;;;8.06;100.00;100291.19;5074508;28;20639;-76
2022/03/15 05:40:29;;;;;;;10.43;7.20;;;;;;;8.13;100.00;100288.19;5074287;28;20193;-76
2022/03/15 05:42:55;;;;;;;10.43;7.53;;;;;;;7.82;100.00;100276.84;5074259;28;20186;-76
2022/03/15 05:45:22;;;;;;;15.57;8.93;;;;;;;7.76;100.00;100283.31;5074529;28;20276;-76
2022/03/15 05:47:50;;;;;;;11.80;8.43;;;;;;;8.09;100.00;100283.88;5066723;28;20185;-76
2022/03/15 05:50:17;;;;;;;14.20;8.82;;;;;;;8.36;100.00;100279.28;5074354;28;20580;-76
2022/03/15 05:52:43;;;;;;;15.23;8.00;;;;;;;8.49;100.00;100279.72;5074210;28;20521;-76
2022/03/15 05:55:11;;;;;;;12.00;8.43;;;;;;;8.46;100.00;100293.28;5074318;28;20233;-76
2022/03/15 05:57:38;;;;;;;10.98;7.65;;;;;;;8.49;100.00;100293.16;5074339;28;20186;-76
2022/03/15 06:00:06;;;;;;;13.57;8.32;;;;;;;8.24;100.00;100289.63;5074349;28;20202;-76
2022/03/15 06:02:33;;;;;;;12.45;8.48;;;;;;;8.12;100.00;100290.97;5073587;28;20190;-76
2022/03/15 06:05:03;;;;;;;15.70;10.05;;;;;;;8.04;100.00;100293.03;5074012;28;20194;-76
2022/03/15 06:07:29;;;;;;;13.13;9.07;;;;;;;8.23;100.00;100291.44;5073771;28;20185;-76
2022/03/15 06:09:57;;;;;;;10.93;8.60;;;;;;;8.33;100.00;100283.91;5074278;28;20200;-76
2022/03/15 06:12:24;;;;;;;15.45;9.55;;;;;;;8.33;100.00;100284.78;5073361;28;20204;-76
2022/03/15 06:14:51;;;;;;;16.60;9.00;;;;;;;8.22;100.00;100281.63;5074132;28;20242;-76
2022/03/15 06:17:17;;;;;;;13.02;9.68;;;;;;;7.97;100.00;100286.16;5073873;28;20185;-76
2022/03/15 06:19:44;;;;;;;14.18;10.63;;;;;;;8.00;100.00;100283.34;5073502;28;20188;-74
2022/03/15 06:22:12;;;;;;;12.90;9.00;;;;;;;7.86;100.00;100274.00;5073560;28;20205;-76
2022/03/15 06:24:39;;;;;;;13.75;8.50;;;;;;;8.00;100.00;100286.91;5073298;28;20233;-75
2022/03/15 06:27:05;;;;;;;14.88;9.50;;;;;;;8.08;100.00;100292.00;5073629;28;20189;-75
2022/03/15 06:29:32;;;;;;;13.02;9.20;;;;;;;7.92;100.00;100283.63;5072625;28;20198;-76
2022/03/15 06:31:59;;;;;;;16.60;9.63;;;;;;;7.96;100.00;100276.34;5073072;28;20185;-76
2022/03/15 06:34:25;;;;;;;14.43;10.35;;;;;;;7.97;100.00;100270.94;5072614;28;20186;-75
2022/03/15 06:36:52;;;;;;;13.73;10.40;;;;;;;8.03;100.00;100259.97;5073518;28;20197;-76
2022/03/15 06:39:20;;;;;;;10.45;9.18;;;;;;;8.31;100.00;100261.63;5073094;28;20185;-76
2022/03/15 06:41:47;;;;;;;15.73;10.88;;;;;;;8.48;100.00;100252.94;5072917;28;20185;-76
2022/03/15 06:44:15;;;;;;;15.70;9.70;;;;;;;8.64;100.00;100250.53;5072550;28;20207;-76
2022/03/15 06:46:41;;;;;;;13.50;7.72;;;;;;;8.50;100.00;100251.06;5073201;28;20597;-76
2022/03/15 06:49:08;;;;;;;9.95;8.02;;;;;;;8.40;100.00;100250.56;5072744;28;20229;-75
2022/03/15 06:51:34;;;;;;;14.13;9.65;;;;;;;8.30;100.00;100252.69;5072472;28;20193;-75
2022/03/15 06:54:01;;;;;;;10.60;8.95;;;;;;;8.03;100.00;100248.38;5072590;28;20197;-75
2022/03/15 06:56:29;;;;;;;11.75;9.38;;;;;;;8.26;100.00;100242.16;5072436;28;20214;-76
2022/03/15 06:58:56;;;;;;;14.25;10.63;;;;;;;8.30;100.00;100250.03;5072860;28;20190;-75
2022/03/15 07:01:23;;;;;;;13.73;8.93;;;;;;;8.30;100.00;100251.84;5072818;28;20561;-75
2022/03/15 07:03:50;;;;;;;15.13;9.07;;;;;;;8.29;100.00;100242.88;5072844;28;20193;-75
2022/03/15 07:06:17;;;;;;;18.20;9.75;;;;;;;8.12;100.00;100243.53;5072272;28;20347;-75
2022/03/15 07:08:43;;;;;;;12.40;9.25;;;;;;;8.26;100.00;100223.38;5072353;28;20188;-75
2022/03/15 07:11:10;;;;;;;11.00;9.55;;;;;;;8.15;100.00;100232.69;5069850;28;20548;-75
2022/03/15 07:13:40;;;;;;;11.85;9.45;;;;;;;8.24;100.00;100234.16;5072731;28;20186;-75
2022/03/15 07:16:07;;;;;;;11.77;9.32;;;;;;;8.30;100.00;100231.25;5072783;28;20222;-75
2022/03/15 07:18:34;;;;;;;14.30;9.75;;;;;;;8.41;100.00;100229.97;5073874;28;20274;-75
2022/03/15 07:21:00;;;;;;;14.65;10.00;;;;;;;8.33;100.00;100244.53;5071976;28;20196;-75
2022/03/15 07:23:27;;;;;;;14.77;9.35;;;;;;;8.38;100.00;100236.28;5073583;28;20196;-75
2022/03/15 07:25:53;;;;;;;15.20;9.07;;;;;;;8.47;100.00;100233.28;5072540;28;20183;-75
2022/03/15 07:28:20;;;;;;;9.65;8.27;;;;;;;8.43;100.00;100231.66;5072331;28;20532;-75
2022/03/15 07:30:48;;;;;;;15.95;10.02;;;;;;;8.44;100.00;100236.09;5072491;28;20223;-75
2022/03/15 07:33:15;;;;;;;10.93;8.55;;;;;;;8.61;100.00;100221.13;5072412;28;20210;-74
2022/03/15 07:35:43;;;;;;;10.00;8.00;;;;;;;8.25;100.00;100214.41;5071341;28;20209;-75
2022/03/15 07:38:10;;;;;;;12.63;8.95;;;;;;;8.40;100.00;100220.16;5072241;28;20589;-75
2022/03/15 07:40:39;;;;;;;15.18;9.18;;;;;;;8.32;100.00;100217.75;5071956;28;20222;-75
2022/03/15 07:43:06;;;;;;;13.05;8.88;;;;;;;8.27;100.00;100215.25;5071500;28;20268;-75
2022/03/15 07:45:32;;;;;;;15.38;10.85;;;;;;;8.19;100.00;100208.44;5072320;28;20951;-76
2022/03/15 07:48:00;;;;;;;15.88;10.50;;;;;;;8.27;100.00;100209.88;5071865;28;20258;-75
2022/03/15 07:50:27;;;;;;;14.68;9.43;;;;;;;8.45;100.00;100202.94;5072287;28;20230;-75
2022/03/15 07:52:53;;;;;;;14.60;9.43;;;;;;;8.40;100.00;100204.03;5072755;28;20195;-75
2022/03/15 07:55:21;;;;;;;14.55;9.50;;;;;;;8.59;100.00;100197.00;5070432;28;20980;-75
2022/03/15 07:57:47;;;;;;;14.40;9.65;;;;;;;8.45;100.00;100194.88;5070989;28;20209;-76
2022/03/15 08:00:15;;;;;;;14.90;10.05;;;;;;;8.60;100.00;100188.03;5071274;28;20190;-75
2022/03/15 08:02:42;;;;;;;14.95;11.27;;;;;;;8.54;100.00;100173.03;5070792;28;20194;-75
2022/03/15 08:05:10;;;;;;;14.45;11.55;;;;;;;8.69;100.00;100178.75;5071548;28;21005;-76
2022/03/15 08:07:37;;;;;;;14.55;11.45;;;;;;;8.40;100.00;100166.47;5071295;28;20195;-76
2022/03/15 08:10:04;;;;;;;11.73;10.45;;;;;;;8.37;100.00;100175.53;5071168;28;20191;-76
2022/03/15 08:12:31;;;;;;;13.48;11.25;;;;;;;8.16;100.00;100182.59;5071523;28;20638;-75
2022/03/15 08:14:58;;;;;;;17.90;12.25;;;;;;;8.29;100.00;100180.31;5070857;28;20234;-75
2022/03/15 08:17:24;;;;;;;18.67;12.60;;;;;;;8.35;100.00;100172.88;5071313;28;20201;-76
2022/03/15 08:19:51;;;;;;;14.98;11.57;;;;;;;8.39;100.00;100162.03;5071626;28;20990;-75
2022/03/15 08:22:19;;;;;;;20.90;12.27;;;;;;;8.44;100.00;100160.94;5072087;28;20188;-75
2022/03/15 08:24:46;;;;;;;12.88;11.40;;;;;;;8.39;100.00;100156.66;5060909;28;20607;-75
2022/03/15 08:27:16;;;;;;;15.07;11.40;;;;;;;8.46;100.00;100156.41;5071978;28;20195;-76
2022/03/15 08:29:42;;;;;;;16.67;12.15;;;;;;;8.47;100.00;100152.75;5071459;28;20190;-75
2022/03/15 08:32:09;;;;;;;20.13;13.75;;;;;;;8.35;100.00;100148.75;5071379;28;20288;-75
2022/03/15 08:34:37;;;;;;;16.48;12.38;;;;;;;8.24;100.00;100153.66;5071175;28;20221;-76
2022/03/15 08:37:04;;;;;;;19.83;13.75;;;;;;;8.07;100.00;100154.34;5071245;28;20242;-76
2022/03/15 08:39:32;;;;;;;16.70;12.98;;;;;;;8.06;100.00;100151.72;5068696;28;20282;-78
2022/03/15 08:41:59;;;;;;;19.75;14.48;;;;;;;8.15;100.00;100144.16;5070638;28;20186;-77
2022/03/15 08:44:25;;;;;;;14.20;12.70;;;;;;;8.28;100.00;100127.59;5070103;28;20208;-78
2022/03/15 08:46:52;;;;;;;16.85;12.65;;;;;;;7.98;100.00;100125.16;5070295;28;20216;-77
2022/03/15 08:49:20;;;;;;;15.35;11.40;;;;;;;7.92;100.00;100126.28;5070446;28;20232;-75
2022/03/15 08:51:47;;;;;;;15.55;12.18;;;;;;;7.77;100.00;100128.69;5070360;28;20679;-75
2022/03/15 08:54:14;;;;;;;18.60;11.98;;;;;;;7.77;100.00;100123.34;5070085;28;20192;-76
2022/03/15 08:56:42;;;;;;;15.63;12.02;;;;;;;8.18;100.00;100118.16;5070278;28;20201;-76
2022/03/15 08:59:12;;;;;;;16.98;12.40;;;;;;;8.21;100.00;100110.88;5068873;28;20205;-77
2022/03/15 09:01:39;;;;;;;16.52;12.15;;;;;;;8.28;100.00;100111.50;5070730;28;20190;-76
2022/03/15 09:04:06;;;;;;;13.43;11.73;;;;;;;8.13;100.00;100116.53;5070986;28;20278;-76
2022/03/15 09:06:33;;;;;;;16.13;12.15;;;;;;;8.05;100.00;100115.97;5071949;28;20182;-77
2022/03/15 09:09:01;;;;;;;15.15;12.50;;;;;;;8.03;100.00;100120.53;5073811;28;20193;-77
2022/03/15 09:11:28;;;;;;;13.65;11.38;;;;;;;7.95;100.00;100111.88;5074049;28;20258;-77
2022/03/15 09:13:56;;;;;;;13.77;11.55;;;;;;;8.15;100.00;100105.75;5073299;28;20180;-77
2022/03/15 09:16:23;;;;;;;14.75;11.13;;;;;;;8.35;100.00;100104.94;5073521;28;20253;-77
2022/03/15 09:18:49;;;;;;;13.90;11.70;;;;;;;8.63;100.00;100106.50;5072933;28;20201;-76
2022/03/15 09:21:18;;;;;;;15.00;12.43;;;;;;;8.81;100.00;100103.03;5074571;28;20286;-77
2022/03/15 09:23:45;;;;;;;13.60;11.27;;;;;;;8.87;100.00;100108.16;5074760;28;20290;-78
2022/03/15 09:26:11;;;;;;;19.10;12.65;;;;;;;8.59;100.00;100107.56;5074715;28;20198;-78
2022/03/15 09:28:38;;;;;;;17.88;13.85;;;;;;;8.82;100.00;100101.22;5074598;28;20187;-77
2022/03/15 09:31:07;;;;;;;15.73;13.18;;;;;;;8.93;100.00;100094.47;5074896;28;20196;-78
2022/03/15 09:33:34;;;;;;;13.52;10.90;;;;;;;8.86;100.00;100095.66;5074799;28;20309;-77
2022/03/15 09:36:01;;;;;;;12.35;10.85;;;;;;;8.77;100.00;100077.25;5073774;28;20210;-77
2022/03/15 09:38:27;;;;;;;18.45;14.70;;;;;;;8.71;100.00;100070.34;5074772;28;20591;-76
2022/03/15 09:40:55;;;;;;;13.48;12.07;;;;;;;8.66;100.00;100067.00;5074569;28;20644;-76
2022/03/15 09:43:23;;;;;;;13.98;12.20;;;;;;;8.90;100.00;100065.03;5074311;28;20197;-77
2022/03/15 09:45:51;;;;;;;16.05;12.45;;;;;;;8.88;100.00;100058.84;5074261;28;20199;-76
2022/03/15 09:48:22;;;;;;;14.52;12.57;;;;;;;8.98;100.00;100057.53;5073735;28;20183;-76
2022/03/15 09:50:51;;;;;;;15.75;11.80;;;;;;;9.00;100.00;100054.78;5073588;28;20232;-77
2022/03/15 09:53:19;;;;;;;15.93;11.55;;;;;;;8.81;100.00;100046.66;5073172;28;20194;-76
2022/03/15 09:55:46;;;;;;;14.30;10.95;;;;;;;8.89;100.00;100043.66;5072810;28;20223;-77
2022/03/15 09:58:13;;;;;;;17.40;12.35;;;;;;;9.02;100.00;100025.16;5074071;28;20190;-76
2022/03/15 10:00:41;;;;;;;22.10;12.55;;;;;;;8.72;100.00;100023.75;5073974;28;20261;-75
2022/03/15 10:03:08;;;;;;;15.00;12.30;;;;;;;8.61;100.00;100019.78;5074361;28;20197;-76
2022/03/15 10:05:36;;;;;;;17.33;13.00;;;;;;;8.79;100.00;100012.75;5073806;28;20501;-76
2022/03/15 10:08:04;;;;;;;14.30;11.52;;;;;;;8.73;100.00;100012.09;5078347;28;20204;-77
2022/03/15 10:10:31;;;;;;;18.50;12.50;;;;;;;8.65;100.00;100006.19;5075931;28;20202;-77
2022/03/15 10:12:57;;;;;;;12.82;11.45;;;;;;;8.73;100.00;100001.34;5074037;28;20200;-77
2022/03/15 10:15:26;;;;;;;15.55;10.60;;;;;;;8.92;100.00;99997.84;5073838;28;20675;-76
2022/03/15 10:17:56;;;;;;;14.27;11.30;;;;;;;8.98;100.00;99992.19;5074592;28;20524;-76
2022/03/15 10:20:28;;;;;;;8.60;7.55;;;;;;;8.97;100.00;99996.69;5073540;28;20278;-76
2022/03/15 10:22:58;;;;;;;14.60;8.07;;;;;;;9.25;100.00;99990.06;5073953;28;20230;-76
2022/03/15 10:25:25;;;;;;;15.68;10.38;;;;;;;9.10;100.00;99988.09;5073823;28;20183;-76
2022/03/15 10:27:54;;;;;;;10.35;7.95;;;;;;;9.33;100.00;99982.50;5073311;28;20268;-76
2022/03/15 10:30:21;;;;;;;11.90;8.93;;;;;;;9.44;100.00;99979.31;5072979;28;20713;-77
2022/03/15 10:32:48;;;;;;;8.40;6.00;;;;;;;9.51;100.00;99961.94;5073282;28;20208;-77
2022/03/15 10:35:19;;;;;;;10.23;8.10;;;;;;;9.52;100.00;99971.75;5072770;28;20630;-77
2022/03/15 10:37:46;;;;;;;8.23;7.40;;;;;;;9.48;100.00;99966.63;5074005;28;20728;-77
2022/03/15 10:40:14;;;;;;;12.30;9.00;;;;;;;9.17;100.00;99968.03;5073756;28;20549;-77
2022/03/15 10:42:43;;;;;;;10.88;8.90;;;;;;;9.21;100.00;99960.72;5073330;28;20546;-77
2022/03/15 10:45:21;;;;;;;12.65;9.77;;;;;;;9.17;100.00;99962.66;5073784;28;20207;-77
2022/03/15 10:47:49;;;;;;;10.43;9.02;;;;;;;9.33;100.00;99955.63;5073546;28;20202;-77
2022/03/15 10:50:17;;;;;;;11.85;8.70;;;;;;;9.51;100.00;99953.88;5072875;28;20277;-76
2022/03/15 10:52:45;;;;;;;11.95;8.65;;;;;;;9.45;100.00;99947.91;5072630;28;20203;-77
2022/03/15 10:55:16;;;;;;;12.05;10.40;;;;;;;9.40;100.00;99929.34;5073402;28;20190;-77
2022/03/15 10:57:52;;;;;;;12.68;9.63;;;;;;;9.19;100.00;99936.59;5069675;28;20230;-77
2022/03/15 11:00:21;;;;;;;17.27;10.02;;;;;;;9.30;100.00;99931.59;5065418;28;20659;-77
2022/03/15 11:02:50;;;;;;;11.80;9.90;;;;;;;9.30;100.00;99923.53;5072634;28;20624;-77
2022/03/15 11:05:29;;;;;;;13.68;10.10;;;;;;;9.33;100.00;99926.06;5071629;28;20191;-76
2022/03/15 11:07:56;;;;;;;11.13;9.90;;;;;;;9.12;100.00;99914.53;5070529;28;20335;-76
2022/03/15 11:10:24;;;;;;;12.05;10.80;;;;;;;9.21;100.00;99912.38;5071252;28;20202;-76
2022/03/15 11:12:56;;;;;;;15.45;11.73;;;;;;;9.18;100.00;99921.44;5071540;28;20265;-77
2022/03/15 11:15:28;;;;;;;18.83;12.75;;;;;;;9.36;100.00;99915.19;5071890;28;20184;-77
2022/03/15 11:18:02;;;;;;;15.35;10.88;;;;;;;9.39;100.00;99915.03;5070517;28;20209;-78
2022/03/15 11:20:35;;;;;;;12.60;9.80;;;;;;;9.53;100.00;99913.50;5072170;28;20490;-77